sensor_id;sensor_type;location;lat;lon;timestamp;pressure;altitude;pressure_sealevel;temperature;humidity
64933;BME280;51446;53.850;10.662;2022-10-15T00:01:18;100530.59;;;13.39;99.82
64933;BME280;51446;53.850;10.662;2022-10-15T00:03:44;100537.63;;;13.40;100.00
64933;BME280;51446;53.850;10.662;2022-10-15T00:06:12;100537.63;;;13.35;100.00
64933;BME280;51446;53.850;10.662;2022-10-15T00:08:38;100527.97;;;13.36;100.00
64933;BME280;51446;53.850;10.662;2022-10-15T00:11:06;100531.47;;;13.36;100.00
64933;BME280;51446;53.850;10.662;2022-10-15T00:13:32;100532.34;;;13.39;100.00
64933;BME280;51446;53.850;10.662;2022-10-15T00:15:59;100529.69;;;13.34;100.00
64933;BME280;51446;53.850;10.662;2022-10-15T00:18:24;100530.56;;;13.28;100.00
64933;BME280;51446;53.850;10.662;2022-10-15T00:20:49;100531.47;;;13.36;100.00
64933;BME280;51446;53.850;10.662;2022-10-15T00:23:15;100525.31;;;13.45;100.00
64933;BME280;51446;53.850;10.662;2022-10-15T00:25:40;100521.81;;;13.40;100.00
64933;BME280;51446;53.850;10.662;2022-10-15T00:28:06;100530.59;;;13.42;100.00
64933;BME280;51446;53.850;10.662;2022-10-15T00:30:31;100528.78;;;13.33;100.00
64933;BME280;51446;53.850;10.662;2022-10-15T00:32:57;100533.25;;;13.50;100.00
64933;BME280;51446;53.850;10.662;2022-10-15T00:35:22;100529.72;;;13.39;100.00
64933;BME280;51446;53.850;10.662;2022-10-15T00:37:47;100537.63;;;13.37;100.00
64933;BME280;51446;53.850;10.662;2022-10-15T00:40:12;100539.38;;;13.50;100.00
64933;BME280;51446;53.850;10.662;2022-10-15T00:42:39;100533.22;;;13.41;100.00
64933;BME280;51446;53.850;10.662;2022-10-15T00:45:05;100529.72;;;13.35;100.00
64933;BME280;51446;53.850;10.662;2022-10-15T00:47:38;100523.56;;;13.38;100.00
64933;BME280;51446;53.850;10.662;2022-10-15T00:50:12;100528.81;;;13.55;100.00
64933;BME280;51446;53.850;10.662;2022-10-15T00:53:00;100512.16;;;13.48;100.00
64933;BME280;51446;53.850;10.662;2022-10-15T00:55:29;100516.53;;;13.32;100.00
64933;BME280;51446;53.850;10.662;2022-10-15T00:57:55;100508.66;;;13.54;100.00
64933;BME280;51446;53.850;10.662;2022-10-15T01:00:22;100508.66;;;13.40;100.00
64933;BME280;51446;53.850;10.662;2022-10-15T01:02:47;100499.00;;;13.50;100.00
64933;BME280;51446;53.850;10.662;2022-10-15T01:05:15;100506.00;;;13.42;100.00
64933;BME280;51446;53.850;10.662;2022-10-15T01:07:41;100501.63;;;13.36;100.00
64933;BME280;51446;53.850;10.662;2022-10-15T01:10:08;100500.72;;;13.46;100.00
64933;BME280;51446;53.850;10.662;2022-10-15T01:15:22;100501.59;;;13.44;100.00
64933;BME280;51446;53.850;10.662;2022-10-15T01:17:54;100488.47;;;13.48;100.00
64933;BME280;51446;53.850;10.662;2022-10-15T01:26:12;100491.09;;;13.47;100.00
64933;BME280;51446;53.850;10.662;2022-10-15T01:29:09;100496.34;;;13.36;100.00
64933;BME280;51446;53.850;10.662;2022-10-15T01:31:56;100492.81;;;13.48;100.00
64933;BME280;51446;53.850;10.662;2022-10-15T01:34:37;100495.44;;;13.25;100.00
64933;BME280;51446;53.850;10.662;2022-10-15T01:37:40;100493.69;;;13.21;100.00
64933;BME280;51446;53.850;10.662;2022-10-15T01:40:16;100491.03;;;13.19;100.00
64933;BME280;51446;53.850;10.662;2022-10-15T01:42:49;100488.41;;;13.11;100.00
64933;BME280;51446;53.850;10.662;2022-10-15T01:45:19;100479.66;;;13.12;100.00
64933;BME280;51446;53.850;10.662;2022-10-15T01:47:53;100484.91;;;13.15;100.00
64933;BME280;51446;53.850;10.662;2022-10-15T01:50:22;100479.63;;;13.11;100.00
64933;BME280;51446;53.850;10.662;2022-10-15T01:52:49;100481.38;;;13.07;100.00
64933;BME280;51446;53.850;10.662;2022-10-15T01:55:17;100479.63;;;13.11;100.00
64933;BME280;51446;53.850;10.662;2022-10-15T01:57:45;100484.91;;;13.12;100.00
64933;BME280;51446;53.850;10.662;2022-10-15T02:00:11;100472.63;;;13.13;100.00
64933;BME280;51446;53.850;10.662;2022-10-15T02:02:36;100484.88;;;13.11;100.00
64933;BME280;51446;53.850;10.662;2022-10-15T02:05:04;100474.38;;;13.23;100.00
64933;BME280;51446;53.850;10.662;2022-10-15T02:07:54;100474.38;;;13.14;100.00
64933;BME280;51446;53.850;10.662;2022-10-15T02:10:32;100478.78;;;13.18;100.00
64933;BME280;51446;53.850;10.662;2022-10-15T02:15:58;100477.00;;;13.09;100.00
64933;BME280;51446;53.850;10.662;2022-10-15T02:18:35;100470.84;;;13.09;100.00
64933;BME280;51446;53.850;10.662;2022-10-15T02:21:15;100472.63;;;13.14;100.00
64933;BME280;51446;53.850;10.662;2022-10-15T02:23:53;100476.13;;;13.10;100.00
64933;BME280;51446;53.850;10.662;2022-10-15T02:26:23;100469.97;;;13.00;100.00
64933;BME280;51446;53.850;10.662;2022-10-15T02:28:53;100468.22;;;13.15;100.00
64933;BME280;51446;53.850;10.662;2022-10-15T02:31:20;100458.59;;;13.17;100.00
64933;BME280;51446;53.850;10.662;2022-10-15T02:33:47;100466.47;;;13.15;100.00
64933;BME280;51446;53.850;10.662;2022-10-15T02:36:15;100458.56;;;13.08;100.00
64933;BME280;51446;53.850;10.662;2022-10-15T02:38:43;100453.28;;;13.08;100.00
64933;BME280;51446;53.850;10.662;2022-10-15T02:41:10;100453.31;;;13.12;100.00
64933;BME280;51446;53.850;10.662;2022-10-15T02:43:37;100455.06;;;13.12;100.00
64933;BME280;51446;53.850;10.662;2022-10-15T02:46:03;100450.69;;;13.12;100.00
64933;BME280;51446;53.850;10.662;2022-10-15T02:48:29;100446.28;;;13.10;100.00
64933;BME280;51446;53.850;10.662;2022-10-15T02:50:54;100448.91;;;13.04;100.00
64933;BME280;51446;53.850;10.662;2022-10-15T02:53:19;100446.28;;;13.04;100.00
64933;BME280;51446;53.850;10.662;2022-10-15T02:55:45;100449.81;;;13.07;100.00
64933;BME280;51446;53.850;10.662;2022-10-15T02:58:11;100448.91;;;13.02;100.00
64933;BME280;51446;53.850;10.662;2022-10-15T03:00:36;100453.31;;;13.01;100.00
64933;BME280;51446;53.850;10.662;2022-10-15T03:03:02;100452.44;;;12.98;100.00
64933;BME280;51446;53.850;10.662;2022-10-15T03:05:27;100446.28;;;13.00;100.00
64933;BME280;51446;53.850;10.662;2022-10-15T03:07:52;100453.31;;;13.03;100.00
64933;BME280;51446;53.850;10.662;2022-10-15T03:10:18;100452.44;;;13.02;100.00
64933;BME280;51446;53.850;10.662;2022-10-15T03:12:43;100455.94;;;13.11;100.00
64933;BME280;51446;53.850;10.662;2022-10-15T03:15:09;100450.69;;;13.14;100.00
64933;BME280;51446;53.850;10.662;2022-10-15T03:17:34;100451.56;;;13.14;100.00
64933;BME280;51446;53.850;10.662;2022-10-15T03:19:59;100448.94;;;13.07;100.00
64933;BME280;51446;53.850;10.662;2022-10-15T03:22:25;100452.41;;;13.13;100.00
64933;BME280;51446;53.850;10.662;2022-10-15T03:24:50;100462.09;;;13.10;100.00
64933;BME280;51446;53.850;10.662;2022-10-15T03:27:15;100457.69;;;13.07;100.00
64933;BME280;51446;53.850;10.662;2022-10-15T03:29:40;100456.84;;;13.07;100.00
64933;BME280;51446;53.850;10.662;2022-10-15T03:32:06;100449.78;;;13.10;100.00
64933;BME280;51446;53.850;10.662;2022-10-15T03:34:31;100455.94;;;13.08;100.00
64933;BME280;51446;53.850;10.662;2022-10-15T03:36:56;100437.50;;;12.89;100.00
64933;BME280;51446;53.850;10.662;2022-10-15T03:39:22;100456.81;;;13.02;100.00
64933;BME280;51446;53.850;10.662;2022-10-15T03:41:47;100448.03;;;12.98;100.00
64933;BME280;51446;53.850;10.662;2022-10-15T03:44:12;100453.31;;;12.98;100.00
64933;BME280;51446;53.850;10.662;2022-10-15T03:46:37;100456.84;;;13.07;100.00
64933;BME280;51446;53.850;10.662;2022-10-15T03:49:03;100456.84;;;13.05;100.00
64933;BME280;51446;53.850;10.662;2022-10-15T03:51:28;100467.34;;;12.99;100.00
64933;BME280;51446;53.850;10.662;2022-10-15T03:53:53;100465.56;;;12.95;100.00
64933;BME280;51446;53.850;10.662;2022-10-15T03:56:19;100468.19;;;12.89;100.00
64933;BME280;51446;53.850;10.662;2022-10-15T03:58:44;100466.44;;;12.78;100.00
64933;BME280;51446;53.850;10.662;2022-10-15T04:01:14;100459.41;;;12.63;100.00
64933;BME280;51446;53.850;10.662;2022-10-15T04:03:40;100468.16;;;12.62;100.00
64933;BME280;51446;53.850;10.662;2022-10-15T04:06:06;100471.66;;;12.52;100.00
64933;BME280;51446;53.850;10.662;2022-10-15T04:08:31;100464.59;;;12.42;100.00
64933;BME280;51446;53.850;10.662;2022-10-15T04:10:57;100467.19;;;12.36;100.00
64933;BME280;51446;53.850;10.662;2022-10-15T04:13:23;100468.94;;;12.26;100.00
64933;BME280;51446;53.850;10.662;2022-10-15T04:15:49;100468.94;;;12.29;100.00
64933;BME280;51446;53.850;10.662;2022-10-15T04:18:14;100472.44;;;12.29;100.00
64933;BME280;51446;53.850;10.662;2022-10-15T04:20:39;100469.81;;;12.25;100.00
64933;BME280;51446;53.850;10.662;2022-10-15T04:23:07;100484.66;;;12.24;100.00
64933;BME280;51446;53.850;10.662;2022-10-15T04:25:32;100485.56;;;12.22;100.00
64933;BME280;51446;53.850;10.662;2022-10-15T04:27:57;100481.16;;;12.14;100.00
64933;BME280;51446;53.850;10.662;2022-10-15T04:30:22;100481.16;;;12.16;100.00
64933;BME280;51446;53.850;10.662;2022-10-15T04:32:50;100470.56;;;12.04;100.00
64933;BME280;51446;53.850;10.662;2022-10-15T04:35:16;100477.59;;;12.03;100.00
64933;BME280;51446;53.850;10.662;2022-10-15T04:37:41;100482.81;;;11.97;100.00
64933;BME280;51446;53.850;10.662;2022-10-15T04:40:07;100484.53;;;11.95;100.00
64933;BME280;51446;53.850;10.662;2022-10-15T04:42:32;100482.75;;;11.92;100.00
64933;BME280;51446;53.850;10.662;2022-10-15T04:44:57;100488.81;;;11.84;100.00
64933;BME280;51446;53.850;10.662;2022-10-15T04:47:23;100485.31;;;11.83;100.00
64933;BME280;51446;53.850;10.662;2022-10-15T04:49:48;100491.44;;;11.85;100.00
64933;BME280;51446;53.850;10.662;2022-10-15T04:52:13;100490.59;;;11.88;100.00
64933;BME280;51446;53.850;10.662;2022-10-15T04:54:39;100491.44;;;11.85;100.00
64933;BME280;51446;53.850;10.662;2022-10-15T04:57:04;100491.53;;;11.93;100.00
64933;BME280;51446;53.850;10.662;2022-10-15T04:59:30;100490.59;;;11.89;100.00
64933;BME280;51446;53.850;10.662;2022-10-15T05:01:55;100486.22;;;11.88;100.00
64933;BME280;51446;53.850;10.662;2022-10-15T05:04:21;100492.38;;;11.89;100.00
64933;BME280;51446;53.850;10.662;2022-10-15T05:06:46;100487.97;;;11.88;100.00
64933;BME280;51446;53.850;10.662;2022-10-15T05:09:11;100495.88;;;11.91;100.00
64933;BME280;51446;53.850;10.662;2022-10-15T05:11:37;100495.00;;;11.90;100.00
64933;BME280;51446;53.850;10.662;2022-10-15T05:14:03;100495.84;;;11.88;100.00
64933;BME280;51446;53.850;10.662;2022-10-15T05:16:29;100503.75;;;11.91;100.00
64933;BME280;51446;53.850;10.662;2022-10-15T05:19:02;100509.00;;;11.89;100.00
64933;BME280;51446;53.850;10.662;2022-10-15T05:21:29;100508.13;;;11.89;100.00
64933;BME280;51446;53.850;10.662;2022-10-15T05:23:56;100509.97;;;12.02;100.00
64933;BME280;51446;53.850;10.662;2022-10-15T05:26:23;100516.09;;;12.01;100.00
64933;BME280;51446;53.850;10.662;2022-10-15T05:28:49;100521.38;;;12.03;100.00
64933;BME280;51446;53.850;10.662;2022-10-15T05:31:18;100522.31;;;12.12;100.00
64933;BME280;51446;53.850;10.662;2022-10-15T05:33:43;100520.50;;;12.04;100.00
64933;BME280;51446;53.850;10.662;2022-10-15T05:36:17;100524.00;;;12.03;100.00
64933;BME280;51446;53.850;10.662;2022-10-15T05:38:43;100528.41;;;12.08;100.00
64933;BME280;51446;53.850;10.662;2022-10-15T05:41:09;100529.31;;;12.07;100.00
64933;BME280;51446;53.850;10.662;2022-10-15T05:43:34;100527.50;;;12.00;100.00
64933;BME280;51446;53.850;10.662;2022-10-15T05:46:00;100532.75;;;12.00;100.00
64933;BME280;51446;53.850;10.662;2022-10-15T05:48:25;100537.97;;;11.94;100.00
64933;BME280;51446;53.850;10.662;2022-10-15T05:50:50;100536.13;;;11.85;100.00
64933;BME280;51446;53.850;10.662;2022-10-15T05:53:16;100547.56;;;11.90;100.00
64933;BME280;51446;53.850;10.662;2022-10-15T05:55:41;100544.84;;;11.81;100.00
64933;BME280;51446;53.850;10.662;2022-10-15T05:58:06;100546.63;;;11.84;100.00
64933;BME280;51446;53.850;10.662;2022-10-15T06:00:32;100553.63;;;11.80;100.00
64933;BME280;51446;53.850;10.662;2022-10-15T06:02:58;100552.81;;;11.89;100.00
64933;BME280;51446;53.850;10.662;2022-10-15T06:05:23;100549.22;;;11.80;100.00
64933;BME280;51446;53.850;10.662;2022-10-15T06:07:49;100558.06;;;11.89;100.00
64933;BME280;51446;53.850;10.662;2022-10-15T06:10:14;100563.31;;;11.89;100.00
64933;BME280;51446;53.850;10.662;2022-10-15T06:12:39;100566.94;;;12.03;100.00
64933;BME280;51446;53.850;10.662;2022-10-15T06:15:06;100568.66;;;12.03;100.00
64933;BME280;51446;53.850;10.662;2022-10-15T06:17:32;100565.19;;;12.04;100.00
64933;BME280;51446;53.850;10.662;2022-10-15T06:19:57;100577.47;;;12.05;100.00
64933;BME280;51446;53.850;10.662;2022-10-15T06:22:22;100577.47;;;12.05;100.00
64933;BME280;51446;53.850;10.662;2022-10-15T06:24:47;100568.72;;;12.04;100.00
64933;BME280;51446;53.850;10.662;2022-10-15T06:27:13;100568.75;;;12.10;100.00
64933;BME280;51446;53.850;10.662;2022-10-15T06:29:39;100572.22;;;12.09;100.00
64933;BME280;51446;53.850;10.662;2022-10-15T06:32:08;100574.03;;;12.15;100.00
64933;BME280;51446;53.850;10.662;2022-10-15T06:34:33;100583.66;;;12.14;100.00
64933;BME280;51446;53.850;10.662;2022-10-15T06:36:59;100580.13;;;12.14;100.00
64933;BME280;51446;53.850;10.662;2022-10-15T06:39:24;100580.16;;;12.17;100.00
64933;BME280;51446;53.850;10.662;2022-10-15T06:41:49;100582.84;;;12.28;100.00
64933;BME280;51446;53.850;10.662;2022-10-15T06:44:14;100575.84;;;12.30;100.00
64933;BME280;51446;53.850;10.662;2022-10-15T06:46:40;100581.16;;;12.33;100.00
64933;BME280;51446;53.850;10.662;2022-10-15T06:49:05;100583.78;;;12.33;100.00
64933;BME280;51446;53.850;10.662;2022-10-15T06:51:30;100592.53;;;12.34;100.00
64933;BME280;51446;53.850;10.662;2022-10-15T06:53:55;100584.66;;;12.40;100.00
64933;BME280;51446;53.850;10.662;2022-10-15T06:56:21;100585.53;;;12.39;100.00
64933;BME280;51446;53.850;10.662;2022-10-15T06:58:46;100585.53;;;12.39;100.00
64933;BME280;51446;53.850;10.662;2022-10-15T07:01:11;100585.56;;;12.42;100.00
64933;BME280;51446;53.850;10.662;2022-10-15T07:03:36;100586.47;;;12.47;100.00
64933;BME280;51446;53.850;10.662;2022-10-15T07:06:04;100588.22;;;12.46;100.00
64933;BME280;51446;53.850;10.662;2022-10-15T07:08:30;100588.16;;;12.39;100.00
64933;BME280;51446;53.850;10.662;2022-10-15T07:10:55;100583.88;;;12.55;100.00
64933;BME280;51446;53.850;10.662;2022-10-15T07:13:21;100583.91;;;12.58;100.00
64933;BME280;51446;53.850;10.662;2022-10-15T07:15:46;100592.69;;;12.66;100.00
64933;BME280;51446;53.850;10.662;2022-10-15T07:18:13;100594.50;;;12.81;100.00
64933;BME280;51446;53.850;10.662;2022-10-15T07:20:39;100598.94;;;12.90;100.00
64933;BME280;51446;53.850;10.662;2022-10-15T07:23:04;100594.59;;;13.04;100.00
64933;BME280;51446;53.850;10.662;2022-10-15T07:25:30;100596.34;;;13.10;100.00
64933;BME280;51446;53.850;10.662;2022-10-15T07:27:56;100597.28;;;13.24;100.00
64933;BME280;51446;53.850;10.662;2022-10-15T07:30:22;100596.38;;;13.13;100.00
64933;BME280;51446;53.850;10.662;2022-10-15T07:32:48;100600.72;;;13.09;100.00
64933;BME280;51446;53.850;10.662;2022-10-15T07:35:13;100602.50;;;13.13;100.00
64933;BME280;51446;53.850;10.662;2022-10-15T07:37:39;100606.03;;;13.29;100.00
64933;BME280;51446;53.850;10.662;2022-10-15T07:40:05;100607.81;;;13.27;100.00
64933;BME280;51446;53.850;10.662;2022-10-15T07:42:30;100606.09;;;13.40;100.00
64933;BME280;51446;53.850;10.662;2022-10-15T07:44:55;100609.53;;;13.21;100.00
64933;BME280;51446;53.850;10.662;2022-10-15T07:47:21;100608.66;;;13.25;100.00
64933;BME280;51446;53.850;10.662;2022-10-15T07:49:46;100606.03;;;13.23;100.00
64933;BME280;51446;53.850;10.662;2022-10-15T07:52:11;100608.75;;;13.35;100.00
64933;BME280;51446;53.850;10.662;2022-10-15T07:54:36;100614.84;;;13.25;99.44
64933;BME280;51446;53.850;10.662;2022-10-15T07:57:02;100599.91;;;13.19;100.00
64933;BME280;51446;53.850;10.662;2022-10-15T07:59:27;100610.44;;;13.23;100.00
64933;BME280;51446;53.850;10.662;2022-10-15T08:01:52;100602.53;;;13.19;99.82
64933;BME280;51446;53.850;10.662;2022-10-15T08:04:18;100608.75;;;13.35;100.00
64933;BME280;51446;53.850;10.662;2022-10-15T08:06:44;100606.97;;;13.45;99.39
64933;BME280;51446;53.850;10.662;2022-10-15T08:09:09;100604.38;;;13.55;99.54
64933;BME280;51446;53.850;10.662;2022-10-15T08:11:35;100600.84;;;13.66;98.14
64933;BME280;51446;53.850;10.662;2022-10-15T08:14:00;100600.88;;;13.79;97.03
64933;BME280;51446;53.850;10.662;2022-10-15T08:16:27;100596.44;;;13.87;96.16
64933;BME280;51446;53.850;10.662;2022-10-15T08:18:53;100599.09;;;13.95;95.93
64933;BME280;51446;53.850;10.662;2022-10-15T08:21:18;100601.72;;;13.85;95.25
64933;BME280;51446;53.850;10.662;2022-10-15T08:23:43;100602.63;;;13.84;95.44
64933;BME280;51446;53.850;10.662;2022-10-15T08:26:08;100606.97;;;13.88;95.39
64933;BME280;51446;53.850;10.662;2022-10-15T08:28:34;100599.97;;;13.89;95.83
64933;BME280;51446;53.850;10.662;2022-10-15T08:31:01;100607.88;;;14.06;95.24
64933;BME280;51446;53.850;10.662;2022-10-15T08:33:29;100603.44;;;14.17;92.94
64933;BME280;51446;53.850;10.662;2022-10-15T08:35:54;100612.25;;;14.07;92.51
64933;BME280;51446;53.850;10.662;2022-10-15T08:38:20;100613.13;;;14.00;93.23
64933;BME280;51446;53.850;10.662;2022-10-15T08:40:49;100612.25;;;14.04;93.92
64933;BME280;51446;53.850;10.662;2022-10-15T08:43:23;100614.03;;;13.85;94.00
64933;BME280;51446;53.850;10.662;2022-10-15T08:45:53;100613.16;;;13.77;95.11
64933;BME280;51446;53.850;10.662;2022-10-15T08:48:29;100608.75;;;13.88;95.21
64933;BME280;51446;53.850;10.662;2022-10-15T08:51:16;100617.53;;;13.85;94.59
64933;BME280;51446;53.850;10.662;2022-10-15T08:53:45;100621.94;;;13.91;95.77
64933;BME280;51446;53.850;10.662;2022-10-15T08:56:35;100632.47;;;13.88;95.95
64933;BME280;51446;53.850;10.662;2022-10-15T09:01:54;100628.97;;;14.12;93.54
64933;BME280;51446;53.850;10.662;2022-10-15T09:06:55;100625.41;;;14.33;91.06
64933;BME280;51446;53.850;10.662;2022-10-15T09:09:40;100610.84;;;16.45;81.45
64933;BME280;51446;53.850;10.662;2022-10-15T09:15:17;100617.50;;;18.53;68.59
64933;BME280;51446;53.850;10.662;2022-10-15T09:17:46;100627.56;;;18.35;69.89
64933;BME280;51446;53.850;10.662;2022-10-15T09:20:33;100623.69;;;18.05;71.43
64933;BME280;51446;53.850;10.662;2022-10-15T09:22:59;100624.06;;;17.80;71.38
64933;BME280;51446;53.850;10.662;2022-10-15T09:25:33;100633.94;;;17.72;72.40
64933;BME280;51446;53.850;10.662;2022-10-15T09:28:05;100631.56;;;16.91;74.31
64933;BME280;51446;53.850;10.662;2022-10-15T09:30:41;100632.09;;;16.40;76.67
64933;BME280;51446;53.850;10.662;2022-10-15T09:33:30;100639.47;;;16.06;78.84
64933;BME280;51446;53.850;10.662;2022-10-15T09:36:18;100635.34;;;15.69;80.58
64933;BME280;51446;53.850;10.662;2022-10-15T09:39:08;100630.97;;;15.64;82.15
64933;BME280;51446;53.850;10.662;2022-10-15T09:44:34;100638.22;;;15.32;82.83
64933;BME280;51446;53.850;10.662;2022-10-15T09:47:00;100638.19;;;15.41;81.91
64933;BME280;51446;53.850;10.662;2022-10-15T09:49:26;100647.84;;;15.44;82.11
64933;BME280;51446;53.850;10.662;2022-10-15T09:52:12;100642.66;;;15.32;82.29
64933;BME280;51446;53.850;10.662;2022-10-15T09:54:50;100637.53;;;15.04;83.28
64933;BME280;51446;53.850;10.662;2022-10-15T09:57:20;100634.03;;;14.94;84.19
64933;BME280;51446;53.850;10.662;2022-10-15T09:59:58;100638.38;;;15.09;84.17
64933;BME280;51446;53.850;10.662;2022-10-15T10:02:28;100638.38;;;15.09;84.70
64933;BME280;51446;53.850;10.662;2022-10-15T10:04:53;100637.34;;;15.35;84.11
64933;BME280;51446;53.850;10.662;2022-10-15T10:07:29;100635.59;;;15.34;84.42
64933;BME280;51446;53.850;10.662;2022-10-15T10:09:57;100640.84;;;15.35;84.22
64933;BME280;51446;53.850;10.662;2022-10-15T10:12:28;100643.47;;;15.41;82.79
64933;BME280;51446;53.850;10.662;2022-10-15T10:14:58;100637.22;;;15.55;82.29
64933;BME280;51446;53.850;10.662;2022-10-15T10:17:26;100637.31;;;16.50;78.08
64933;BME280;51446;53.850;10.662;2022-10-15T10:20:17;100630.16;;;17.29;72.93
64933;BME280;51446;53.850;10.662;2022-10-15T10:22:47;100635.56;;;17.81;71.01
64933;BME280;51446;53.850;10.662;2022-10-15T10:27:50;100628.41;;;21.27;57.07
64933;BME280;51446;53.850;10.662;2022-10-15T10:30:15;100626.28;;;20.15;58.76
64933;BME280;51446;53.850;10.662;2022-10-15T10:32:41;100625.78;;;18.36;65.23
64933;BME280;51446;53.850;10.662;2022-10-15T10:35:19;100621.19;;;18.89;64.20
64933;BME280;51446;53.850;10.662;2022-10-15T10:37:45;100622.56;;;20.20;60.23
64933;BME280;51446;53.850;10.662;2022-10-15T10:40:27;100627.28;;;19.35;62.03
64933;BME280;51446;53.850;10.662;2022-10-15T10:43:27;100621.19;;;19.69;61.41
64933;BME280;51446;53.850;10.662;2022-10-15T10:45:54;100616.38;;;20.84;59.83
64933;BME280;51446;53.850;10.662;2022-10-15T10:48:25;100620.84;;;21.42;55.31
64933;BME280;51446;53.850;10.662;2022-10-15T10:51:03;100620.25;;;20.41;57.40
64933;BME280;51446;53.850;10.662;2022-10-15T10:53:28;100613.81;;;19.82;59.47
64933;BME280;51446;53.850;10.662;2022-10-15T10:55:55;100613.34;;;19.99;60.25
64933;BME280;51446;53.850;10.662;2022-10-15T10:58:22;100609.41;;;21.10;56.20
64933;BME280;51446;53.850;10.662;2022-10-15T11:00:50;100610.63;;;22.37;53.11
64933;BME280;51446;53.850;10.662;2022-10-15T11:03:29;100599.41;;;22.00;53.34
64933;BME280;51446;53.850;10.662;2022-10-15T11:06:02;100609.53;;;21.63;54.05
64933;BME280;51446;53.850;10.662;2022-10-15T11:17:16;100600.50;;;22.70;50.93
64933;BME280;51446;53.850;10.662;2022-10-15T11:23:00;100598.66;;;22.72;50.92
64933;BME280;51446;53.850;10.662;2022-10-15T11:26:05;100598.53;;;22.51;50.72
64933;BME280;51446;53.850;10.662;2022-10-15T11:31:36;100584.97;;;23.03;50.77
64933;BME280;51446;53.850;10.662;2022-10-15T11:37:15;100594.34;;;22.68;49.96
64933;BME280;51446;53.850;10.662;2022-10-15T11:45:02;100611.31;;;19.73;58.90
64933;BME280;51446;53.850;10.662;2022-10-15T11:47:50;100603.63;;;19.62;59.99
64933;BME280;51446;53.850;10.662;2022-10-15T11:50:40;100609.59;;;19.34;60.38
64933;BME280;51446;53.850;10.662;2022-10-15T11:53:39;100605.34;;;18.85;62.16
64933;BME280;51446;53.850;10.662;2022-10-15T11:56:17;100605.19;;;18.00;64.52
64933;BME280;51446;53.850;10.662;2022-10-15T11:58:47;100600.84;;;17.95;66.47
64933;BME280;51446;53.850;10.662;2022-10-15T12:01:22;100596.63;;;18.77;64.00
64933;BME280;51446;53.850;10.662;2022-10-15T12:03:57;100594.22;;;19.08;64.66
64933;BME280;51446;53.850;10.662;2022-10-15T12:06:27;100590.56;;;19.14;62.31
64933;BME280;51446;53.850;10.662;2022-10-15T12:08:56;100589.63;;;18.29;64.37
64933;BME280;51446;53.850;10.662;2022-10-15T12:11:44;100592.56;;;17.62;67.00
64933;BME280;51446;53.850;10.662;2022-10-15T12:14:19;100586.63;;;17.46;68.21
64933;BME280;51446;53.850;10.662;2022-10-15T12:17:10;100573.78;;;17.18;69.28
64933;BME280;51446;53.850;10.662;2022-10-15T12:19:55;100585.47;;;17.03;70.18
64933;BME280;51446;53.850;10.662;2022-10-15T12:22:52;100583.16;;;17.41;69.98
64933;BME280;51446;53.850;10.662;2022-10-15T12:28:03;100572.41;;;17.50;68.98
64933;BME280;51446;53.850;10.662;2022-10-15T12:30:33;100572.25;;;17.59;67.85
64933;BME280;51446;53.850;10.662;2022-10-15T12:33:01;100562.31;;;17.72;67.73
64933;BME280;51446;53.850;10.662;2022-10-15T12:35:34;100555.47;;;17.60;67.98
64933;BME280;51446;53.850;10.662;2022-10-15T12:38:20;100554.16;;;17.30;68.68
64933;BME280;51446;53.850;10.662;2022-10-15T12:40:54;100544.53;;;17.26;69.46
64933;BME280;51446;53.850;10.662;2022-10-15T12:43:20;100542.66;;;17.31;69.61
64933;BME280;51446;53.850;10.662;2022-10-15T12:45:51;100542.50;;;17.42;69.53
64933;BME280;51446;53.850;10.662;2022-10-15T12:50:45;100537.34;;;17.32;69.00
64933;BME280;51446;53.850;10.662;2022-10-15T12:58:35;100537.44;;;17.26;68.65
64933;BME280;51446;53.850;10.662;2022-10-15T13:08:51;100538.47;;;17.16;68.99
64933;BME280;51446;53.850;10.662;2022-10-15T13:11:29;100543.91;;;17.07;69.33
64933;BME280;51446;53.850;10.662;2022-10-15T13:14:10;100546.53;;;17.08;68.95
64933;BME280;51446;53.850;10.662;2022-10-15T13:16:46;100539.44;;;17.10;69.04
64933;BME280;51446;53.850;10.662;2022-10-15T13:19:20;100537.63;;;17.12;69.87
64933;BME280;51446;53.850;10.662;2022-10-15T13:24:22;100526.19;;;17.10;69.17
64933;BME280;51446;53.850;10.662;2022-10-15T13:26:48;100520.75;;;17.20;68.51
64933;BME280;51446;53.850;10.662;2022-10-15T13:29:22;100518.19;;;17.15;69.39
64933;BME280;51446;53.850;10.662;2022-10-15T13:31:48;100520.84;;;17.68;67.30
64933;BME280;51446;53.850;10.662;2022-10-15T13:34:29;100523.19;;;17.85;67.10
64933;BME280;51446;53.850;10.662;2022-10-15T13:36:57;100533.69;;;17.93;66.35
64933;BME280;51446;53.850;10.662;2022-10-15T13:42:17;100531.88;;;17.95;66.29
64933;BME280;51446;53.850;10.662;2022-10-15T13:44:54;100532.44;;;18.12;66.44
64933;BME280;51446;53.850;10.662;2022-10-15T13:47:34;100538.50;;;17.69;65.41
64933;BME280;51446;53.850;10.662;2022-10-15T13:50:12;100541.63;;;17.40;67.26
64933;BME280;51446;53.850;10.662;2022-10-15T13:52:43;100541.19;;;17.67;66.64
64933;BME280;51446;53.850;10.662;2022-10-15T13:55:21;100534.03;;;17.71;66.96
64933;BME280;51446;53.850;10.662;2022-10-15T13:57:49;100529.28;;;17.40;67.55